sensor_id;sensor_type;location;lat;lon;timestamp;pressure;altitude;pressure_sealevel;temperature;humidity
48555;BME280;34336;48.270;16.716;2023-03-14T00:02:26;109325.25;;;18.16;58.51
48555;BME280;34336;48.270;16.716;2023-03-14T00:04:54;109325.25;;;18.16;58.50
48555;BME280;34336;48.270;16.716;2023-03-14T00:07:20;109325.25;;;18.16;58.63
48555;BME280;34336;48.270;16.716;2023-03-14T00:09:47;109325.25;;;18.16;59.05
48555;BME280;34336;48.270;16.716;2023-03-14T00:12:13;109325.25;;;18.16;59.06
48555;BME280;34336;48.270;16.716;2023-03-14T00:14:40;109325.25;;;18.16;59.22
48555;BME280;34336;48.270;16.716;2023-03-14T00:17:08;109325.25;;;18.16;59.04
48555;BME280;34336;48.270;16.716;2023-03-14T00:19:35;109325.25;;;18.16;59.01
48555;BME280;34336;48.270;16.716;2023-03-14T00:22:01;109325.25;;;18.16;59.12
48555;BME280;34336;48.270;16.716;2023-03-14T00:24:28;109325.25;;;18.16;59.28
48555;BME280;34336;48.270;16.716;2023-03-14T00:26:54;109325.25;;;18.16;59.61
48555;BME280;34336;48.270;16.716;2023-03-14T00:29:22;109325.25;;;18.16;60.41
48555;BME280;34336;48.270;16.716;2023-03-14T00:31:48;109325.25;;;18.16;60.44
48555;BME280;34336;48.270;16.716;2023-03-14T00:34:15;109325.25;;;18.16;60.96
48555;BME280;34336;48.270;16.716;2023-03-14T00:36:41;109325.25;;;18.16;60.68
48555;BME280;34336;48.270;16.716;2023-03-14T00:39:08;109325.25;;;18.16;61.34
48555;BME280;34336;48.270;16.716;2023-03-14T00:41:34;109325.25;;;18.16;61.33
48555;BME280;34336;48.270;16.716;2023-03-14T00:44:01;109325.25;;;18.16;61.47
48555;BME280;34336;48.270;16.716;2023-03-14T00:46:28;109325.25;;;18.16;61.54
48555;BME280;34336;48.270;16.716;2023-03-14T00:48:54;109325.25;;;18.16;62.34
48555;BME280;34336;48.270;16.716;2023-03-14T00:51:22;109325.25;;;18.16;61.93
48555;BME280;34336;48.270;16.716;2023-03-14T00:53:48;109325.25;;;18.16;61.91
48555;BME280;34336;48.270;16.716;2023-03-14T00:56:15;109325.25;;;18.16;62.26
48555;BME280;34336;48.270;16.716;2023-03-14T00:58:42;109325.25;;;18.16;61.92
48555;BME280;34336;48.270;16.716;2023-03-14T01:01:14;109325.25;;;18.16;62.67
48555;BME280;34336;48.270;16.716;2023-03-14T01:03:41;109325.25;;;18.16;62.79
48555;BME280;34336;48.270;16.716;2023-03-14T01:06:15;109325.25;;;18.16;62.79
48555;BME280;34336;48.270;16.716;2023-03-14T01:08:42;109325.25;;;18.16;63.17
48555;BME280;34336;48.270;16.716;2023-03-14T01:11:09;109325.25;;;18.16;63.58
48555;BME280;34336;48.270;16.716;2023-03-14T01:13:36;109325.25;;;18.16;63.38
48555;BME280;34336;48.270;16.716;2023-03-14T01:16:03;109325.25;;;18.16;63.17
48555;BME280;34336;48.270;16.716;2023-03-14T01:18:31;109325.25;;;18.16;63.42
48555;BME280;34336;48.270;16.716;2023-03-14T01:20:58;109325.25;;;18.16;63.13
48555;BME280;34336;48.270;16.716;2023-03-14T01:23:25;109325.25;;;18.16;64.01
48555;BME280;34336;48.270;16.716;2023-03-14T01:25:52;109325.25;;;18.16;63.94
48555;BME280;34336;48.270;16.716;2023-03-14T01:28:18;109325.25;;;18.16;63.93
48555;BME280;34336;48.270;16.716;2023-03-14T01:30:45;109325.25;;;18.16;63.93
48555;BME280;34336;48.270;16.716;2023-03-14T01:33:12;109325.25;;;18.16;63.82
48555;BME280;34336;48.270;16.716;2023-03-14T01:35:43;109325.25;;;18.16;63.75
48555;BME280;34336;48.270;16.716;2023-03-14T01:38:10;109325.25;;;18.16;63.86
48555;BME280;34336;48.270;16.716;2023-03-14T01:40:43;109325.25;;;18.16;64.33
48555;BME280;34336;48.270;16.716;2023-03-14T01:43:17;109325.25;;;18.16;64.38
48555;BME280;34336;48.270;16.716;2023-03-14T01:48:51;109325.25;;;18.16;65.06
48555;BME280;34336;48.270;16.716;2023-03-14T01:56:48;109325.25;;;18.16;64.92
48555;BME280;34336;48.270;16.716;2023-03-14T01:59:16;109325.25;;;18.16;64.46
48555;BME280;34336;48.270;16.716;2023-03-14T02:01:43;109325.25;;;18.16;63.66
48555;BME280;34336;48.270;16.716;2023-03-14T02:04:12;109325.25;;;18.16;63.89
48555;BME280;34336;48.270;16.716;2023-03-14T02:09:36;109325.25;;;18.16;63.28
48555;BME280;34336;48.270;16.716;2023-03-14T02:12:03;109325.25;;;18.16;63.40
48555;BME280;34336;48.270;16.716;2023-03-14T02:14:43;109325.25;;;18.16;63.31
48555;BME280;34336;48.270;16.716;2023-03-14T02:17:24;109325.25;;;18.16;63.19
48555;BME280;34336;48.270;16.716;2023-03-14T02:22:42;109325.25;;;18.16;63.86
48555;BME280;34336;48.270;16.716;2023-03-14T02:27:43;109325.25;;;18.16;64.05
48555;BME280;34336;48.270;16.716;2023-03-14T02:30:13;109325.25;;;18.16;64.46
48555;BME280;34336;48.270;16.716;2023-03-14T02:32:43;109325.25;;;18.16;64.20
48555;BME280;34336;48.270;16.716;2023-03-14T02:35:14;109325.25;;;18.16;64.63
48555;BME280;34336;48.270;16.716;2023-03-14T02:37:44;109325.25;;;18.16;64.43
48555;BME280;34336;48.270;16.716;2023-03-14T02:40:12;109325.25;;;18.16;64.45
48555;BME280;34336;48.270;16.716;2023-03-14T02:42:40;109325.25;;;18.16;64.26
48555;BME280;34336;48.270;16.716;2023-03-14T02:47:41;109325.25;;;18.16;64.14
48555;BME280;34336;48.270;16.716;2023-03-14T02:50:10;109325.25;;;18.16;64.38
48555;BME280;34336;48.270;16.716;2023-03-14T02:52:38;109325.25;;;18.16;64.38
48555;BME280;34336;48.270;16.716;2023-03-14T02:55:06;109325.25;;;18.16;64.67
48555;BME280;34336;48.270;16.716;2023-03-14T02:57:34;109325.25;;;18.16;64.91
48555;BME280;34336;48.270;16.716;2023-03-14T03:00:01;109325.25;;;18.16;65.33
48555;BME280;34336;48.270;16.716;2023-03-14T03:02:35;109325.25;;;18.16;65.26
48555;BME280;34336;48.270;16.716;2023-03-14T03:05:01;109325.25;;;18.16;65.45
48555;BME280;34336;48.270;16.716;2023-03-14T03:07:28;109325.25;;;18.16;65.48
48555;BME280;34336;48.270;16.716;2023-03-14T03:09:56;109325.25;;;18.16;65.80
48555;BME280;34336;48.270;16.716;2023-03-14T03:12:22;109325.25;;;18.16;65.61
48555;BME280;34336;48.270;16.716;2023-03-14T03:14:49;109325.25;;;18.16;65.71
48555;BME280;34336;48.270;16.716;2023-03-14T03:17:15;109325.25;;;18.16;66.02
48555;BME280;34336;48.270;16.716;2023-03-14T03:19:43;109325.25;;;18.16;66.24
48555;BME280;34336;48.270;16.716;2023-03-14T03:22:09;109325.25;;;18.16;66.83
48555;BME280;34336;48.270;16.716;2023-03-14T03:24:39;109325.25;;;18.16;66.72
48555;BME280;34336;48.270;16.716;2023-03-14T03:27:06;109325.25;;;18.16;66.89
48555;BME280;34336;48.270;16.716;2023-03-14T03:29:33;109325.25;;;18.16;67.12
48555;BME280;34336;48.270;16.716;2023-03-14T03:32:00;109325.25;;;18.16;67.20
48555;BME280;34336;48.270;16.716;2023-03-14T03:34:27;109325.25;;;18.16;67.83
48555;BME280;34336;48.270;16.716;2023-03-14T03:36:57;109325.25;;;18.16;67.92
48555;BME280;34336;48.270;16.716;2023-03-14T03:39:25;109325.25;;;18.16;68.08
48555;BME280;34336;48.270;16.716;2023-03-14T03:41:52;109325.25;;;18.16;68.31
48555;BME280;34336;48.270;16.716;2023-03-14T03:44:19;109325.25;;;18.16;68.67
48555;BME280;34336;48.270;16.716;2023-03-14T03:46:45;109325.25;;;18.16;68.74
48555;BME280;34336;48.270;16.716;2023-03-14T03:49:12;109325.25;;;18.16;68.55
48555;BME280;34336;48.270;16.716;2023-03-14T03:51:39;109325.25;;;18.16;69.17
48555;BME280;34336;48.270;16.716;2023-03-14T03:54:06;109325.25;;;18.16;69.18
48555;BME280;34336;48.270;16.716;2023-03-14T03:56:32;109325.25;;;18.16;69.47
48555;BME280;34336;48.270;16.716;2023-03-14T03:58:59;109325.25;;;18.16;69.70
48555;BME280;34336;48.270;16.716;2023-03-14T04:01:25;109325.25;;;18.16;69.74
48555;BME280;34336;48.270;16.716;2023-03-14T04:03:55;109325.25;;;18.16;69.97
48555;BME280;34336;48.270;16.716;2023-03-14T04:06:22;109325.25;;;18.16;70.65
48555;BME280;34336;48.270;16.716;2023-03-14T04:08:53;109325.25;;;18.16;70.99
48555;BME280;34336;48.270;16.716;2023-03-14T04:11:45;109325.25;;;18.16;71.25
48555;BME280;34336;48.270;16.716;2023-03-14T04:14:15;109325.25;;;18.16;72.00
48555;BME280;34336;48.270;16.716;2023-03-14T04:16:42;109325.25;;;18.16;71.79
48555;BME280;34336;48.270;16.716;2023-03-14T04:19:13;109325.25;;;18.16;72.35
48555;BME280;34336;48.270;16.716;2023-03-14T04:21:40;109325.25;;;18.16;72.28
48555;BME280;34336;48.270;16.716;2023-03-14T04:24:11;109325.25;;;18.16;72.64
48555;BME280;34336;48.270;16.716;2023-03-14T04:26:39;109325.25;;;18.16;73.09
48555;BME280;34336;48.270;16.716;2023-03-14T04:29:08;109325.25;;;18.16;73.88
48555;BME280;34336;48.270;16.716;2023-03-14T04:31:37;109325.25;;;18.16;73.00
48555;BME280;34336;48.270;16.716;2023-03-14T04:34:07;109325.25;;;18.16;73.05
48555;BME280;34336;48.270;16.716;2023-03-14T04:36:39;109325.25;;;18.16;72.89
48555;BME280;34336;48.270;16.716;2023-03-14T04:39:12;109325.25;;;18.16;72.81
48555;BME280;34336;48.270;16.716;2023-03-14T04:41:47;109325.25;;;18.16;73.20
48555;BME280;34336;48.270;16.716;2023-03-14T04:44:13;109325.25;;;18.16;73.57
48555;BME280;34336;48.270;16.716;2023-03-14T04:46:40;109325.25;;;18.16;73.85
48555;BME280;34336;48.270;16.716;2023-03-14T04:49:07;109325.25;;;18.16;73.98
48555;BME280;34336;48.270;16.716;2023-03-14T04:51:34;109325.25;;;18.16;74.20
48555;BME280;34336;48.270;16.716;2023-03-14T04:54:01;109325.25;;;18.16;72.59
48555;BME280;34336;48.270;16.716;2023-03-14T04:56:28;109325.25;;;18.16;71.55
48555;BME280;34336;48.270;16.716;2023-03-14T04:58:55;109325.25;;;18.16;70.11
48555;BME280;34336;48.270;16.716;2023-03-14T05:01:22;109325.25;;;18.16;70.04
48555;BME280;34336;48.270;16.716;2023-03-14T05:04:04;109325.25;;;18.16;69.31
48555;BME280;34336;48.270;16.716;2023-03-14T05:06:59;109325.25;;;18.16;69.63
48555;BME280;34336;48.270;16.716;2023-03-14T05:09:44;109325.25;;;18.16;69.45
48555;BME280;34336;48.270;16.716;2023-03-14T05:12:25;109325.25;;;18.16;69.84
48555;BME280;34336;48.270;16.716;2023-03-14T05:15:00;109325.25;;;18.16;69.40
48555;BME280;34336;48.270;16.716;2023-03-14T05:17:47;109325.25;;;18.16;69.64
48555;BME280;34336;48.270;16.716;2023-03-14T05:20:41;109325.25;;;18.16;69.29
48555;BME280;34336;48.270;16.716;2023-03-14T05:23:38;109325.25;;;18.16;68.79
48555;BME280;34336;48.270;16.716;2023-03-14T05:26:28;109325.25;;;18.16;69.28
48555;BME280;34336;48.270;16.716;2023-03-14T05:29:13;109325.25;;;18.16;69.62
48555;BME280;34336;48.270;16.716;2023-03-14T05:32:02;109325.25;;;18.16;70.69
48555;BME280;34336;48.270;16.716;2023-03-14T05:34:39;109325.25;;;18.16;70.41
48555;BME280;34336;48.270;16.716;2023-03-14T05:37:31;109325.25;;;18.16;70.94
48555;BME280;34336;48.270;16.716;2023-03-14T05:40:16;109325.25;;;18.16;72.09
48555;BME280;34336;48.270;16.716;2023-03-14T05:43:08;109325.25;;;18.16;72.19
48555;BME280;34336;48.270;16.716;2023-03-14T05:45:53;109325.25;;;18.16;72.86
48555;BME280;34336;48.270;16.716;2023-03-14T05:48:40;109325.25;;;18.16;72.85
48555;BME280;34336;48.270;16.716;2023-03-14T05:51:26;109325.25;;;18.16;73.46
48555;BME280;34336;48.270;16.716;2023-03-14T05:54:03;109325.25;;;18.16;73.41
48555;BME280;34336;48.270;16.716;2023-03-14T05:56:40;109325.25;;;18.16;73.81
48555;BME280;34336;48.270;16.716;2023-03-14T05:59:27;109325.25;;;18.16;73.59
48555;BME280;34336;48.270;16.716;2023-03-14T06:02:12;109325.25;;;18.16;73.64
48555;BME280;34336;48.270;16.716;2023-03-14T06:04:52;109325.25;;;18.16;73.62
48555;BME280;34336;48.270;16.716;2023-03-14T06:07:18;109325.25;;;18.16;74.07
48555;BME280;34336;48.270;16.716;2023-03-14T06:09:45;109325.25;;;18.16;74.16
48555;BME280;34336;48.270;16.716;2023-03-14T06:12:15;109325.25;;;18.16;74.33
48555;BME280;34336;48.270;16.716;2023-03-14T06:14:44;109325.25;;;18.16;74.37
48555;BME280;34336;48.270;16.716;2023-03-14T06:17:11;109325.25;;;18.16;74.40
48555;BME280;34336;48.270;16.716;2023-03-14T06:19:46;109325.25;;;18.16;74.08
48555;BME280;34336;48.270;16.716;2023-03-14T06:22:13;109325.25;;;18.16;74.47
48555;BME280;34336;48.270;16.716;2023-03-14T06:24:40;109325.25;;;18.16;73.95
48555;BME280;34336;48.270;16.716;2023-03-14T06:27:06;109325.25;;;18.16;73.12
48555;BME280;34336;48.270;16.716;2023-03-14T06:29:33;109325.25;;;18.16;74.52
48555;BME280;34336;48.270;16.716;2023-03-14T06:32:01;109325.25;;;18.16;73.63
48555;BME280;34336;48.270;16.716;2023-03-14T06:34:28;109325.25;;;18.16;72.83
48555;BME280;34336;48.270;16.716;2023-03-14T06:36:54;109325.25;;;18.16;71.91
48555;BME280;34336;48.270;16.716;2023-03-14T06:39:21;109325.25;;;18.16;70.81
48555;BME280;34336;48.270;16.716;2023-03-14T06:41:57;109325.25;;;18.16;69.60
48555;BME280;34336;48.270;16.716;2023-03-14T06:44:24;109325.25;;;18.16;69.69
48555;BME280;34336;48.270;16.716;2023-03-14T06:46:50;109325.25;;;18.16;69.18
48555;BME280;34336;48.270;16.716;2023-03-14T06:49:17;109325.25;;;18.16;68.02
48555;BME280;34336;48.270;16.716;2023-03-14T06:51:44;109325.25;;;18.16;66.89
48555;BME280;34336;48.270;16.716;2023-03-14T06:54:11;109325.25;;;18.16;66.65
48555;BME280;34336;48.270;16.716;2023-03-14T06:56:38;109325.25;;;18.16;66.13
48555;BME280;34336;48.270;16.716;2023-03-14T06:59:04;109325.25;;;18.16;65.20
48555;BME280;34336;48.270;16.716;2023-03-14T07:01:31;109325.25;;;18.16;64.05
48555;BME280;34336;48.270;16.716;2023-03-14T07:04:06;109325.25;;;18.16;62.01
48555;BME280;34336;48.270;16.716;2023-03-14T07:06:35;109325.25;;;18.16;59.61
48555;BME280;34336;48.270;16.716;2023-03-14T07:09:03;109325.25;;;18.16;58.83
48555;BME280;34336;48.270;16.716;2023-03-14T07:11:32;109325.25;;;18.16;57.94
48555;BME280;34336;48.270;16.716;2023-03-14T07:13:58;109325.25;;;18.16;56.91
48555;BME280;34336;48.270;16.716;2023-03-14T07:16:25;109325.25;;;18.16;57.04
48555;BME280;34336;48.270;16.716;2023-03-14T07:18:54;109325.25;;;18.16;56.81
48555;BME280;34336;48.270;16.716;2023-03-14T07:21:21;109325.25;;;18.16;59.21
48555;BME280;34336;48.270;16.716;2023-03-14T07:23:47;109325.25;;;18.16;59.98
48555;BME280;34336;48.270;16.716;2023-03-14T07:26:15;109325.25;;;18.16;59.79
48555;BME280;34336;48.270;16.716;2023-03-14T07:28:47;109325.25;;;18.16;58.54
48555;BME280;34336;48.270;16.716;2023-03-14T07:31:17;109325.25;;;18.16;57.48
48555;BME280;34336;48.270;16.716;2023-03-14T07:33:43;109325.25;;;18.16;57.66
48555;BME280;34336;48.270;16.716;2023-03-14T07:36:10;109325.25;;;18.16;57.39
48555;BME280;34336;48.270;16.716;2023-03-14T07:38:40;109325.25;;;18.16;56.25
48555;BME280;34336;48.270;16.716;2023-03-14T07:41:26;109325.25;;;18.16;56.29
48555;BME280;34336;48.270;16.716;2023-03-14T07:44:11;109325.25;;;18.16;54.95
48555;BME280;34336;48.270;16.716;2023-03-14T07:46:37;109325.25;;;18.16;54.15
48555;BME280;34336;48.270;16.716;2023-03-14T07:49:04;109325.25;;;18.16;54.00
48555;BME280;34336;48.270;16.716;2023-03-14T07:51:31;109325.25;;;18.16;54.47
48555;BME280;34336;48.270;16.716;2023-03-14T07:53:57;109325.25;;;18.16;54.41
48555;BME280;34336;48.270;16.716;2023-03-14T07:56:24;109325.25;;;18.16;54.35
48555;BME280;34336;48.270;16.716;2023-03-14T07:58:50;109325.25;;;18.16;54.95
48555;BME280;34336;48.270;16.716;2023-03-14T08:01:17;109325.25;;;18.16;55.56
48555;BME280;34336;48.270;16.716;2023-03-14T08:03:43;109325.25;;;18.16;55.25
48555;BME280;34336;48.270;16.716;2023-03-14T08:06:10;109325.25;;;18.16;55.11
48555;BME280;34336;48.270;16.716;2023-03-14T08:08:36;109325.25;;;18.16;55.62
48555;BME280;34336;48.270;16.716;2023-03-14T08:11:04;109325.25;;;18.16;55.53
48555;BME280;34336;48.270;16.716;2023-03-14T08:13:30;109325.25;;;18.16;54.50
48555;BME280;34336;48.270;16.716;2023-03-14T08:15:57;109325.25;;;18.16;55.08
48555;BME280;34336;48.270;16.716;2023-03-14T08:18:24;109325.25;;;18.16;54.57
48555;BME280;34336;48.270;16.716;2023-03-14T08:20:50;109325.25;;;18.16;55.19
48555;BME280;34336;48.270;16.716;2023-03-14T08:23:17;109325.25;;;18.16;55.22
48555;BME280;34336;48.270;16.716;2023-03-14T08:25:43;109325.25;;;18.16;55.72
48555;BME280;34336;48.270;16.716;2023-03-14T08:28:10;109325.25;;;18.16;55.53
48555;BME280;34336;48.270;16.716;2023-03-14T08:30:36;109325.25;;;18.16;55.74
48555;BME280;34336;48.270;16.716;2023-03-14T08:33:03;109325.25;;;18.16;54.94
48555;BME280;34336;48.270;16.716;2023-03-14T08:35:30;109325.25;;;18.16;55.69
48555;BME280;34336;48.270;16.716;2023-03-14T08:37:56;109325.25;;;18.16;55.89
48555;BME280;34336;48.270;16.716;2023-03-14T08:40:23;109325.25;;;18.16;55.53
48555;BME280;34336;48.270;16.716;2023-03-14T08:42:49;109325.25;;;18.16;55.40
48555;BME280;34336;48.270;16.716;2023-03-14T08:45:16;109325.25;;;18.16;55.11
48555;BME280;34336;48.270;16.716;2023-03-14T08:47:43;109325.25;;;18.16;54.29
48555;BME280;34336;48.270;16.716;2023-03-14T08:50:10;109325.25;;;18.16;53.98
48555;BME280;34336;48.270;16.716;2023-03-14T08:52:41;109325.25;;;18.16;55.03
48555;BME280;34336;48.270;16.716;2023-03-14T08:55:08;109325.25;;;18.16;55.08
48555;BME280;34336;48.270;16.716;2023-03-14T08:57:35;109325.25;;;18.16;54.82
48555;BME280;34336;48.270;16.716;2023-03-14T09:00:03;109325.25;;;18.16;54.68
48555;BME280;34336;48.270;16.716;2023-03-14T09:02:32;109325.25;;;18.16;55.03
48555;BME280;34336;48.270;16.716;2023-03-14T09:04:58;109325.25;;;18.16;55.46
48555;BME280;34336;48.270;16.716;2023-03-14T09:07:25;109325.25;;;18.16;55.69
48555;BME280;34336;48.270;16.716;2023-03-14T09:09:51;109325.25;;;18.16;55.50
48555;BME280;34336;48.270;16.716;2023-03-14T09:12:18;109325.25;;;18.16;56.21
48555;BME280;34336;48.270;16.716;2023-03-14T09:14:44;109325.25;;;18.16;56.53
48555;BME280;34336;48.270;16.716;2023-03-14T09:17:11;109325.25;;;18.16;56.64
48555;BME280;34336;48.270;16.716;2023-03-14T09:19:37;109325.25;;;18.16;56.43
48555;BME280;34336;48.270;16.716;2023-03-14T09:22:04;109325.25;;;18.16;56.81
48555;BME280;34336;48.270;16.716;2023-03-14T09:24:30;109325.25;;;18.16;57.38
48555;BME280;34336;48.270;16.716;2023-03-14T09:26:57;109325.25;;;18.16;57.64
48555;BME280;34336;48.270;16.716;2023-03-14T09:29:23;109325.25;;;18.16;57.32
48555;BME280;34336;48.270;16.716;2023-03-14T09:31:50;109325.25;;;18.16;57.88
48555;BME280;34336;48.270;16.716;2023-03-14T09:34:17;109325.25;;;18.16;57.64
48555;BME280;34336;48.270;16.716;2023-03-14T09:36:44;109325.25;;;18.16;57.93
48555;BME280;34336;48.270;16.716;2023-03-14T09:39:11;109325.25;;;18.16;57.80
48555;BME280;34336;48.270;16.716;2023-03-14T09:41:38;109325.25;;;18.16;57.59
48555;BME280;34336;48.270;16.716;2023-03-14T09:44:16;109325.25;;;18.16;57.48
48555;BME280;34336;48.270;16.716;2023-03-14T09:46:46;109325.25;;;18.16;57.89
48555;BME280;34336;48.270;16.716;2023-03-14T09:51:42;109325.25;;;18.16;57.86
48555;BME280;34336;48.270;16.716;2023-03-14T09:54:16;109325.25;;;18.16;58.24
48555;BME280;34336;48.270;16.716;2023-03-14T09:56:46;109325.25;;;18.16;57.94
48555;BME280;34336;48.270;16.716;2023-03-14T09:59:13;109325.25;;;18.16;57.93
48555;BME280;34336;48.270;16.716;2023-03-14T10:01:40;109325.25;;;18.16;57.87
48555;BME280;34336;48.270;16.716;2023-03-14T10:04:10;109325.25;;;18.16;57.87
48555;BME280;34336;48.270;16.716;2023-03-14T10:06:39;109325.25;;;18.16;58.26
48555;BME280;34336;48.270;16.716;2023-03-14T10:09:08;109325.25;;;18.16;58.53
48555;BME280;34336;48.270;16.716;2023-03-14T10:11:34;109325.25;;;18.16;59.03
48555;BME280;34336;48.270;16.716;2023-03-14T10:16:29;109325.25;;;18.16;58.65
48555;BME280;34336;48.270;16.716;2023-03-14T10:19:07;109325.25;;;18.16;58.25
48555;BME280;34336;48.270;16.716;2023-03-14T10:21:40;109325.25;;;18.16;57.88
48555;BME280;34336;48.270;16.716;2023-03-14T10:24:18;109325.25;;;18.16;57.99
48555;BME280;34336;48.270;16.716;2023-03-14T10:26:47;109325.25;;;18.16;57.27
48555;BME280;34336;48.270;16.716;2023-03-14T10:29:14;109325.25;;;18.16;57.02
48555;BME280;34336;48.270;16.716;2023-03-14T10:32:18;109325.25;;;18.16;56.43
48555;BME280;34336;48.270;16.716;2023-03-14T10:34:37;109325.25;;;18.16;56.96
48555;BME280;34336;48.270;16.716;2023-03-14T10:37:42;109325.25;;;18.16;56.81
48555;BME280;34336;48.270;16.716;2023-03-14T10:40:00;109325.25;;;18.16;56.32
48555;BME280;34336;48.270;16.716;2023-03-14T10:42:34;109325.25;;;18.16;56.83
48555;BME280;34336;48.270;16.716;2023-03-14T10:45:06;109325.25;;;18.16;56.85
48555;BME280;34336;48.270;16.716;2023-03-14T10:47:36;109325.25;;;18.16;57.54
48555;BME280;34336;48.270;16.716;2023-03-14T10:50:24;109325.25;;;18.16;58.34
48555;BME280;34336;48.270;16.716;2023-03-14T10:52:51;109325.25;;;18.16;58.37
48555;BME280;34336;48.270;16.716;2023-03-14T10:55:41;109325.25;;;18.16;58.94
48555;BME280;34336;48.270;16.716;2023-03-14T10:58:21;109325.25;;;18.16;58.21
48555;BME280;34336;48.270;16.716;2023-03-14T11:00:50;109325.25;;;18.16;58.41
48555;BME280;34336;48.270;16.716;2023-03-14T11:03:17;109325.25;;;18.16;58.04
48555;BME280;34336;48.270;16.716;2023-03-14T11:05:49;109325.25;;;18.16;57.95
48555;BME280;34336;48.270;16.716;2023-03-14T11:08:23;109325.25;;;18.16;58.48
48555;BME280;34336;48.270;16.716;2023-03-14T11:10:53;109325.25;;;18.16;59.39
48555;BME280;34336;48.270;16.716;2023-03-14T11:13:32;109325.25;;;18.16;59.65
48555;BME280;34336;48.270;16.716;2023-03-14T11:21:54;109325.25;;;18.16;60.04
48555;BME280;34336;48.270;16.716;2023-03-14T11:26:59;109325.25;;;18.16;59.86
48555;BME280;34336;48.270;16.716;2023-03-14T11:32:40;109325.25;;;18.16;59.32
48555;BME280;34336;48.270;16.716;2023-03-14T11:35:51;109325.25;;;18.16;58.96
48555;BME280;34336;48.270;16.716;2023-03-14T11:38:04;109325.25;;;18.16;59.00
48555;BME280;34336;48.270;16.716;2023-03-14T11:40:31;109325.25;;;18.16;58.64
48555;BME280;34336;48.270;16.716;2023-03-14T11:43:00;109325.25;;;18.16;58.98
48555;BME280;34336;48.270;16.716;2023-03-14T11:45:35;109325.25;;;18.16;59.52
48555;BME280;34336;48.270;16.716;2023-03-14T11:50:48;109325.25;;;18.16;60.28
48555;BME280;34336;48.270;16.716;2023-03-14T11:53:39;109325.25;;;18.16;60.54
48555;BME280;34336;48.270;16.716;2023-03-14T11:56:14;109325.25;;;18.16;59.71
48555;BME280;34336;48.270;16.716;2023-03-14T11:58:50;109325.25;;;18.16;59.63
48555;BME280;34336;48.270;16.716;2023-03-14T12:01:17;109325.25;;;18.16;59.67
48555;BME280;34336;48.270;16.716;2023-03-14T12:04:02;109325.25;;;18.16;59.54
48555;BME280;34336;48.270;16.716;2023-03-14T12:06:34;109325.25;;;18.16;59.23
48555;BME280;34336;48.270;16.716;2023-03-14T12:09:04;109325.25;;;18.16;59.24
48555;BME280;34336;48.270;16.716;2023-03-14T12:11:47;109325.25;;;18.16;58.63
48555;BME280;34336;48.270;16.716;2023-03-14T12:14:17;109325.25;;;18.16;58.73
48555;BME280;34336;48.270;16.716;2023-03-14T12:16:45;109325.25;;;18.16;59.33
48555;BME280;34336;48.270;16.716;2023-03-14T12:19:14;109325.25;;;18.16;59.54
48555;BME280;34336;48.270;16.716;2023-03-14T12:21:49;109325.25;;;18.16;60.00
48555;BME280;34336;48.270;16.716;2023-03-14T12:24:20;109325.25;;;18.16;59.94
48555;BME280;34336;48.270;16.716;2023-03-14T12:26:52;109325.25;;;18.16;60.06
48555;BME280;34336;48.270;16.716;2023-03-14T12:29:18;109325.25;;;18.16;60.55
48555;BME280;34336;48.270;16.716;2023-03-14T12:31:46;109325.25;;;18.16;60.95
48555;BME280;34336;48.270;16.716;2023-03-14T12:41:50;109325.25;;;18.16;59.09
48555;BME280;34336;48.270;16.716;2023-03-14T12:46:59;109325.25;;;18.16;58.82
48555;BME280;34336;48.270;16.716;2023-03-14T12:49:29;109325.25;;;18.16;59.17
48555;BME280;34336;48.270;16.716;2023-03-14T12:52:00;109325.25;;;18.16;59.14
48555;BME280;34336;48.270;16.716;2023-03-14T12:54:43;109325.25;;;18.16;59.12
48555;BME280;34336;48.270;16.716;2023-03-14T12:59:56;109325.25;;;18.16;58.80
48555;BME280;34336;48.270;16.716;2023-03-14T13:04:51;109325.25;;;18.16;59.67
48555;BME280;34336;48.270;16.716;2023-03-14T13:15:27;109325.25;;;18.16;60.41
48555;BME280;34336;48.270;16.716;2023-03-14T13:17:56;109325.25;;;18.16;60.29
48555;BME280;34336;48.270;16.716;2023-03-14T13:20:29;109325.25;;;18.16;60.16
48555;BME280;34336;48.270;16.716;2023-03-14T13:22:57;109325.25;;;18.16;60.13
48555;BME280;34336;48.270;16.716;2023-03-14T13:25:23;109325.25;;;18.16;60.18
48555;BME280;34336;48.270;16.716;2023-03-14T13:27:52;109325.25;;;18.16;60.50
48555;BME280;34336;48.270;16.716;2023-03-14T13:30:24;109325.25;;;18.16;60.43
48555;BME280;34336;48.270;16.716;2023-03-14T13:32:51;109325.25;;;18.16;60.31
48555;BME280;34336;48.270;16.716;2023-03-14T13:35:20;109325.25;;;18.16;60.99
48555;BME280;34336;48.270;16.716;2023-03-14T13:37:51;109325.25;;;18.16;61.45
48555;BME280;34336;48.270;16.716;2023-03-14T13:40:33;109325.25;;;18.16;62.15
48555;BME280;34336;48.270;16.716;2023-03-14T13:45:49;109325.25;;;18.16;64.72
48555;BME280;34336;48.270;16.716;2023-03-14T13:48:16;109325.25;;;18.16;66.93
48555;BME280;34336;48.270;16.716;2023-03-14T13:50:45;109325.25;;;18.16;68.21
48555;BME280;34336;48.270;16.716;2023-03-14T13:53:12;109325.25;;;18.16;69.50
48555;BME280;34336;48.270;16.716;2023-03-14T13:55:38;109325.25;;;18.16;69.74
48555;BME280;34336;48.270;16.716;2023-03-14T13:58:04;109325.25;;;18.16;70.51
48555;BME280;34336;48.270;16.716;2023-03-14T14:00:31;109325.25;;;18.16;72.68
48555;BME280;34336;48.270;16.716;2023-03-14T14:02:58;109325.25;;;18.16;72.82